sensor_id;sensor_type;location;lat;lon;timestamp;P1;durP1;ratioP1;P2;durP2;ratioP2
6109;SDS011;3085;49.444;11.054;2023-07-20T00:02:26;5.90;;;3.03;;
6109;SDS011;3085;49.444;11.054;2023-07-20T00:04:52;7.03;;;3.50;;
6109;SDS011;3085;49.444;11.054;2023-07-20T00:07:19;16.43;;;3.20;;
6109;SDS011;3085;49.444;11.054;2023-07-20T00:09:46;6.23;;;2.87;;
6109;SDS011;3085;49.444;11.054;2023-07-20T00:12:15;4.20;;;2.13;;
6109;SDS011;3085;49.444;11.054;2023-07-20T00:14:41;4.50;;;2.53;;
6109;SDS011;3085;49.444;11.054;2023-07-20T00:17:08;5.73;;;2.80;;
6109;SDS011;3085;49.444;11.054;2023-07-20T00:19:35;3.93;;;2.57;;
6109;SDS011;3085;49.444;11.054;2023-07-20T00:22:02;4.53;;;2.23;;
6109;SDS011;3085;49.444;11.054;2023-07-20T00:24:30;4.73;;;2.27;;
6109;SDS011;3085;49.444;11.054;2023-07-20T00:26:57;4.63;;;2.53;;
6109;SDS011;3085;49.444;11.054;2023-07-20T00:29:27;5.60;;;2.83;;
6109;SDS011;3085;49.444;11.054;2023-07-20T00:31:54;7.53;;;2.40;;
6109;SDS011;3085;49.444;11.054;2023-07-20T00:34:21;4.50;;;2.90;;
6109;SDS011;3085;49.444;11.054;2023-07-20T00:36:48;6.40;;;3.23;;
6109;SDS011;3085;49.444;11.054;2023-07-20T00:39:15;4.70;;;2.93;;
6109;SDS011;3085;49.444;11.054;2023-07-20T00:41:42;4.77;;;2.90;;
6109;SDS011;3085;49.444;11.054;2023-07-20T00:44:09;4.50;;;2.77;;
6109;SDS011;3085;49.444;11.054;2023-07-20T00:46:37;6.40;;;3.10;;
6109;SDS011;3085;49.444;11.054;2023-07-20T00:49:06;2.97;;;2.37;;
6109;SDS011;3085;49.444;11.054;2023-07-20T00:51:34;7.97;;;3.33;;
6109;SDS011;3085;49.444;11.054;2023-07-20T00:54:01;7.53;;;2.60;;
6109;SDS011;3085;49.444;11.054;2023-07-20T00:56:27;6.23;;;2.83;;
6109;SDS011;3085;49.444;11.054;2023-07-20T00:58:55;4.47;;;2.93;;
6109;SDS011;3085;49.444;11.054;2023-07-20T01:01:22;5.63;;;2.40;;
6109;SDS011;3085;49.444;11.054;2023-07-20T01:03:50;5.33;;;3.10;;
6109;SDS011;3085;49.444;11.054;2023-07-20T01:06:22;4.57;;;2.90;;
6109;SDS011;3085;49.444;11.054;2023-07-20T01:08:57;6.00;;;3.20;;
6109;SDS011;3085;49.444;11.054;2023-07-20T01:11:36;9.27;;;3.63;;
6109;SDS011;3085;49.444;11.054;2023-07-20T01:14:07;12.90;;;2.57;;
6109;SDS011;3085;49.444;11.054;2023-07-20T01:16:34;6.80;;;3.20;;
6109;SDS011;3085;49.444;11.054;2023-07-20T01:19:02;4.63;;;2.60;;
6109;SDS011;3085;49.444;11.054;2023-07-20T01:21:31;8.27;;;3.10;;
6109;SDS011;3085;49.444;11.054;2023-07-20T01:33:07;6.73;;;2.83;;
6109;SDS011;3085;49.444;11.054;2023-07-20T01:35:35;6.73;;;2.70;;
6109;SDS011;3085;49.444;11.054;2023-07-20T01:38:04;4.00;;;2.30;;
6109;SDS011;3085;49.444;11.054;2023-07-20T01:40:32;3.40;;;2.47;;
6109;SDS011;3085;49.444;11.054;2023-07-20T01:42:59;5.40;;;2.60;;
6109;SDS011;3085;49.444;11.054;2023-07-20T01:45:26;8.93;;;3.53;;
6109;SDS011;3085;49.444;11.054;2023-07-20T01:47:53;4.07;;;2.80;;
6109;SDS011;3085;49.444;11.054;2023-07-20T01:50:21;4.17;;;2.93;;
6109;SDS011;3085;49.444;11.054;2023-07-20T01:52:48;6.03;;;3.00;;
6109;SDS011;3085;49.444;11.054;2023-07-20T01:55:14;4.63;;;3.07;;
6109;SDS011;3085;49.444;11.054;2023-07-20T01:57:41;5.33;;;2.70;;
6109;SDS011;3085;49.444;11.054;2023-07-20T02:00:08;3.20;;;2.43;;
6109;SDS011;3085;49.444;11.054;2023-07-20T02:02:37;4.40;;;2.70;;
6109;SDS011;3085;49.444;11.054;2023-07-20T02:05:03;4.60;;;2.80;;
6109;SDS011;3085;49.444;11.054;2023-07-20T02:07:32;4.80;;;2.87;;
6109;SDS011;3085;49.444;11.054;2023-07-20T02:09:59;6.23;;;3.60;;
6109;SDS011;3085;49.444;11.054;2023-07-20T02:12:26;4.17;;;2.93;;
6109;SDS011;3085;49.444;11.054;2023-07-20T02:14:53;5.67;;;3.03;;
6109;SDS011;3085;49.444;11.054;2023-07-20T02:17:22;4.73;;;2.80;;
6109;SDS011;3085;49.444;11.054;2023-07-20T02:19:50;5.43;;;3.30;;
6109;SDS011;3085;49.444;11.054;2023-07-20T02:22:19;9.27;;;3.90;;
6109;SDS011;3085;49.444;11.054;2023-07-20T02:24:47;10.57;;;4.00;;
6109;SDS011;3085;49.444;11.054;2023-07-20T02:27:15;5.77;;;3.20;;
6109;SDS011;3085;49.444;11.054;2023-07-20T02:29:42;9.80;;;3.97;;
6109;SDS011;3085;49.444;11.054;2023-07-20T02:32:08;5.80;;;3.60;;
6109;SDS011;3085;49.444;11.054;2023-07-20T02:34:36;6.87;;;3.47;;
6109;SDS011;3085;49.444;11.054;2023-07-20T02:37:02;6.43;;;3.30;;
6109;SDS011;3085;49.444;11.054;2023-07-20T02:39:29;6.90;;;4.13;;
6109;SDS011;3085;49.444;11.054;2023-07-20T02:41:57;5.43;;;3.00;;
6109;SDS011;3085;49.444;11.054;2023-07-20T02:44:24;26.20;;;4.43;;
6109;SDS011;3085;49.444;11.054;2023-07-20T02:46:51;9.90;;;3.50;;
6109;SDS011;3085;49.444;11.054;2023-07-20T02:49:18;10.10;;;3.87;;
6109;SDS011;3085;49.444;11.054;2023-07-20T02:51:45;5.50;;;3.17;;
6109;SDS011;3085;49.444;11.054;2023-07-20T02:54:12;16.77;;;3.57;;
6109;SDS011;3085;49.444;11.054;2023-07-20T02:56:39;6.47;;;3.90;;
6109;SDS011;3085;49.444;11.054;2023-07-20T02:59:07;12.27;;;3.10;;
6109;SDS011;3085;49.444;11.054;2023-07-20T03:01:34;9.67;;;3.50;;
6109;SDS011;3085;49.444;11.054;2023-07-20T03:04:01;5.23;;;3.53;;
6109;SDS011;3085;49.444;11.054;2023-07-20T03:06:29;5.20;;;2.83;;
6109;SDS011;3085;49.444;11.054;2023-07-20T03:08:55;5.10;;;2.97;;
6109;SDS011;3085;49.444;11.054;2023-07-20T03:11:23;9.83;;;3.60;;
6109;SDS011;3085;49.444;11.054;2023-07-20T03:13:49;5.30;;;3.43;;
6109;SDS011;3085;49.444;11.054;2023-07-20T03:16:19;5.53;;;3.17;;
6109;SDS011;3085;49.444;11.054;2023-07-20T03:18:46;6.10;;;3.30;;
6109;SDS011;3085;49.444;11.054;2023-07-20T03:21:12;5.17;;;2.90;;
6109;SDS011;3085;49.444;11.054;2023-07-20T03:23:40;4.53;;;3.07;;
6109;SDS011;3085;49.444;11.054;2023-07-20T03:26:07;4.60;;;2.80;;
6109;SDS011;3085;49.444;11.054;2023-07-20T03:28:34;7.47;;;2.97;;
6109;SDS011;3085;49.444;11.054;2023-07-20T03:31:01;5.33;;;2.67;;
6109;SDS011;3085;49.444;11.054;2023-07-20T03:33:30;6.07;;;3.33;;
6109;SDS011;3085;49.444;11.054;2023-07-20T03:35:57;4.50;;;2.37;;
6109;SDS011;3085;49.444;11.054;2023-07-20T03:38:25;3.67;;;2.60;;
6109;SDS011;3085;49.444;11.054;2023-07-20T03:40:55;5.67;;;2.50;;
6109;SDS011;3085;49.444;11.054;2023-07-20T03:43:23;4.67;;;3.13;;
6109;SDS011;3085;49.444;11.054;2023-07-20T03:45:51;7.40;;;2.90;;
6109;SDS011;3085;49.444;11.054;2023-07-20T03:48:19;8.00;;;3.33;;
6109;SDS011;3085;49.444;11.054;2023-07-20T03:50:49;10.30;;;3.27;;
6109;SDS011;3085;49.444;11.054;2023-07-20T03:53:18;5.80;;;3.50;;
6109;SDS011;3085;49.444;11.054;2023-07-20T03:55:45;11.00;;;3.13;;
6109;SDS011;3085;49.444;11.054;2023-07-20T03:58:13;6.00;;;2.70;;
6109;SDS011;3085;49.444;11.054;2023-07-20T04:00:40;7.37;;;2.80;;
6109;SDS011;3085;49.444;11.054;2023-07-20T04:03:09;4.43;;;2.57;;
6109;SDS011;3085;49.444;11.054;2023-07-20T04:05:36;6.73;;;3.70;;
6109;SDS011;3085;49.444;11.054;2023-07-20T04:08:04;4.07;;;2.67;;
6109;SDS011;3085;49.444;11.054;2023-07-20T04:10:31;4.93;;;2.93;;
6109;SDS011;3085;49.444;11.054;2023-07-20T04:12:59;12.63;;;3.80;;
6109;SDS011;3085;49.444;11.054;2023-07-20T04:15:29;6.43;;;3.10;;
6109;SDS011;3085;49.444;11.054;2023-07-20T04:17:56;6.20;;;3.20;;
6109;SDS011;3085;49.444;11.054;2023-07-20T04:20:23;6.03;;;2.70;;
6109;SDS011;3085;49.444;11.054;2023-07-20T04:22:51;4.63;;;3.00;;
6109;SDS011;3085;49.444;11.054;2023-07-20T04:25:20;7.97;;;3.70;;
6109;SDS011;3085;49.444;11.054;2023-07-20T04:27:47;15.47;;;3.43;;
6109;SDS011;3085;49.444;11.054;2023-07-20T04:30:16;13.17;;;2.77;;
6109;SDS011;3085;49.444;11.054;2023-07-20T04:32:45;9.33;;;3.50;;
6109;SDS011;3085;49.444;11.054;2023-07-20T04:35:16;7.37;;;3.50;;
6109;SDS011;3085;49.444;11.054;2023-07-20T04:37:44;11.20;;;3.10;;
6109;SDS011;3085;49.444;11.054;2023-07-20T04:40:12;14.37;;;2.67;;
6109;SDS011;3085;49.444;11.054;2023-07-20T04:42:40;18.37;;;3.60;;
6109;SDS011;3085;49.444;11.054;2023-07-20T04:45:07;4.10;;;2.60;;
6109;SDS011;3085;49.444;11.054;2023-07-20T04:47:35;4.80;;;2.73;;
6109;SDS011;3085;49.444;11.054;2023-07-20T04:50:02;11.90;;;2.90;;
6109;SDS011;3085;49.444;11.054;2023-07-20T04:52:29;8.83;;;3.23;;
6109;SDS011;3085;49.444;11.054;2023-07-20T04:54:56;4.40;;;3.00;;
6109;SDS011;3085;49.444;11.054;2023-07-20T04:57:23;6.03;;;3.53;;
6109;SDS011;3085;49.444;11.054;2023-07-20T04:59:51;7.23;;;3.23;;
6109;SDS011;3085;49.444;11.054;2023-07-20T05:02:18;8.77;;;3.23;;
6109;SDS011;3085;49.444;11.054;2023-07-20T05:04:45;5.03;;;3.37;;
6109;SDS011;3085;49.444;11.054;2023-07-20T05:07:12;5.10;;;3.20;;
6109;SDS011;3085;49.444;11.054;2023-07-20T05:09:39;7.10;;;2.97;;
6109;SDS011;3085;49.444;11.054;2023-07-20T05:12:06;5.50;;;2.50;;
6109;SDS011;3085;49.444;11.054;2023-07-20T05:14:33;11.23;;;3.57;;
6109;SDS011;3085;49.444;11.054;2023-07-20T05:17:03;9.30;;;3.13;;
6109;SDS011;3085;49.444;11.054;2023-07-20T05:19:30;12.77;;;3.70;;
6109;SDS011;3085;49.444;11.054;2023-07-20T05:21:57;5.13;;;2.97;;
6109;SDS011;3085;49.444;11.054;2023-07-20T05:24:24;4.60;;;2.83;;
6109;SDS011;3085;49.444;11.054;2023-07-20T05:26:51;9.33;;;3.23;;
6109;SDS011;3085;49.444;11.054;2023-07-20T05:29:19;10.97;;;3.23;;
6109;SDS011;3085;49.444;11.054;2023-07-20T05:31:46;8.00;;;3.43;;
6109;SDS011;3085;49.444;11.054;2023-07-20T05:34:14;5.07;;;2.90;;
6109;SDS011;3085;49.444;11.054;2023-07-20T05:36:43;5.97;;;2.90;;
6109;SDS011;3085;49.444;11.054;2023-07-20T05:39:09;7.03;;;2.43;;
6109;SDS011;3085;49.444;11.054;2023-07-20T05:41:36;3.80;;;2.90;;
6109;SDS011;3085;49.444;11.054;2023-07-20T05:44:03;11.03;;;2.80;;
6109;SDS011;3085;49.444;11.054;2023-07-20T05:46:31;6.27;;;3.17;;
6109;SDS011;3085;49.444;11.054;2023-07-20T05:48:58;7.83;;;3.00;;
6109;SDS011;3085;49.444;11.054;2023-07-20T05:51:26;5.63;;;2.63;;
6109;SDS011;3085;49.444;11.054;2023-07-20T05:53:53;5.37;;;2.80;;
6109;SDS011;3085;49.444;11.054;2023-07-20T05:56:21;7.20;;;2.57;;
6109;SDS011;3085;49.444;11.054;2023-07-20T05:58:49;7.63;;;2.60;;
6109;SDS011;3085;49.444;11.054;2023-07-20T06:01:27;8.37;;;2.50;;
6109;SDS011;3085;49.444;11.054;2023-07-20T06:03:57;4.50;;;2.30;;
6109;SDS011;3085;49.444;11.054;2023-07-20T06:06:24;6.50;;;2.63;;
6109;SDS011;3085;49.444;11.054;2023-07-20T06:08:52;6.97;;;2.40;;
6109;SDS011;3085;49.444;11.054;2023-07-20T06:11:19;4.00;;;2.00;;
6109;SDS011;3085;49.444;11.054;2023-07-20T06:13:47;3.13;;;2.00;;
6109;SDS011;3085;49.444;11.054;2023-07-20T06:16:13;4.93;;;2.17;;
6109;SDS011;3085;49.444;11.054;2023-07-20T06:18:40;7.50;;;2.70;;
6109;SDS011;3085;49.444;11.054;2023-07-20T06:21:07;3.67;;;2.43;;
6109;SDS011;3085;49.444;11.054;2023-07-20T06:23:34;9.50;;;2.57;;
6109;SDS011;3085;49.444;11.054;2023-07-20T06:26:02;4.00;;;2.03;;
6109;SDS011;3085;49.444;11.054;2023-07-20T06:28:29;4.40;;;2.67;;
6109;SDS011;3085;49.444;11.054;2023-07-20T06:30:59;5.40;;;2.60;;
6109;SDS011;3085;49.444;11.054;2023-07-20T06:33:29;3.23;;;2.10;;
6109;SDS011;3085;49.444;11.054;2023-07-20T06:35:57;3.33;;;2.43;;
6109;SDS011;3085;49.444;11.054;2023-07-20T06:38:24;7.50;;;2.90;;
6109;SDS011;3085;49.444;11.054;2023-07-20T06:40:51;15.57;;;3.40;;
6109;SDS011;3085;49.444;11.054;2023-07-20T06:43:19;8.30;;;2.47;;
6109;SDS011;3085;49.444;11.054;2023-07-20T06:45:50;4.93;;;3.07;;
6109;SDS011;3085;49.444;11.054;2023-07-20T06:48:18;7.13;;;3.90;;
6109;SDS011;3085;49.444;11.054;2023-07-20T06:50:45;5.70;;;3.10;;
6109;SDS011;3085;49.444;11.054;2023-07-20T06:53:12;7.13;;;2.43;;
6109;SDS011;3085;49.444;11.054;2023-07-20T06:55:39;4.77;;;2.83;;
6109;SDS011;3085;49.444;11.054;2023-07-20T06:58:07;5.37;;;3.03;;
6109;SDS011;3085;49.444;11.054;2023-07-20T07:00:36;4.93;;;2.57;;
6109;SDS011;3085;49.444;11.054;2023-07-20T07:03:04;6.93;;;2.67;;
6109;SDS011;3085;49.444;11.054;2023-07-20T07:05:34;6.13;;;2.60;;
6109;SDS011;3085;49.444;11.054;2023-07-20T07:08:02;7.30;;;2.90;;
6109;SDS011;3085;49.444;11.054;2023-07-20T07:10:29;8.20;;;2.73;;
6109;SDS011;3085;49.444;11.054;2023-07-20T07:12:56;8.53;;;2.10;;
6109;SDS011;3085;49.444;11.054;2023-07-20T07:15:22;4.20;;;2.30;;
6109;SDS011;3085;49.444;11.054;2023-07-20T07:17:51;6.23;;;2.40;;
6109;SDS011;3085;49.444;11.054;2023-07-20T07:20:18;4.30;;;2.27;;
6109;SDS011;3085;49.444;11.054;2023-07-20T07:22:44;5.90;;;2.20;;
6109;SDS011;3085;49.444;11.054;2023-07-20T07:25:11;2.83;;;1.87;;
6109;SDS011;3085;49.444;11.054;2023-07-20T07:27:39;3.50;;;1.80;;
6109;SDS011;3085;49.444;11.054;2023-07-20T07:30:06;4.23;;;2.10;;
6109;SDS011;3085;49.444;11.054;2023-07-20T07:32:33;6.40;;;2.23;;
6109;SDS011;3085;49.444;11.054;2023-07-20T07:35:01;10.80;;;2.07;;
6109;SDS011;3085;49.444;11.054;2023-07-20T07:37:29;4.00;;;2.03;;
6109;SDS011;3085;49.444;11.054;2023-07-20T07:39:56;8.53;;;2.00;;
6109;SDS011;3085;49.444;11.054;2023-07-20T07:42:23;5.90;;;2.30;;
6109;SDS011;3085;49.444;11.054;2023-07-20T07:44:49;3.50;;;2.23;;
6109;SDS011;3085;49.444;11.054;2023-07-20T07:47:16;3.73;;;2.13;;
6109;SDS011;3085;49.444;11.054;2023-07-20T07:49:43;5.70;;;1.90;;
6109;SDS011;3085;49.444;11.054;2023-07-20T07:52:11;3.93;;;2.20;;
6109;SDS011;3085;49.444;11.054;2023-07-20T07:54:39;3.20;;;1.73;;
6109;SDS011;3085;49.444;11.054;2023-07-20T07:57:05;4.37;;;1.80;;
6109;SDS011;3085;49.444;11.054;2023-07-20T07:59:32;11.00;;;2.00;;
6109;SDS011;3085;49.444;11.054;2023-07-20T08:02:01;7.47;;;2.33;;
6109;SDS011;3085;49.444;11.054;2023-07-20T08:04:28;2.70;;;2.13;;
6109;SDS011;3085;49.444;11.054;2023-07-20T08:06:55;4.93;;;2.50;;
6109;SDS011;3085;49.444;11.054;2023-07-20T08:09:24;2.73;;;1.60;;
6109;SDS011;3085;49.444;11.054;2023-07-20T08:11:51;8.23;;;2.27;;
6109;SDS011;3085;49.444;11.054;2023-07-20T08:14:17;4.33;;;2.00;;
6109;SDS011;3085;49.444;11.054;2023-07-20T08:16:45;4.03;;;1.67;;
6109;SDS011;3085;49.444;11.054;2023-07-20T08:19:12;4.00;;;2.27;;
6109;SDS011;3085;49.444;11.054;2023-07-20T08:21:39;5.40;;;1.60;;
6109;SDS011;3085;49.444;11.054;2023-07-20T08:24:06;6.70;;;1.60;;
6109;SDS011;3085;49.444;11.054;2023-07-20T08:26:35;4.33;;;1.67;;
6109;SDS011;3085;49.444;11.054;2023-07-20T08:29:02;3.00;;;2.00;;
6109;SDS011;3085;49.444;11.054;2023-07-20T08:31:28;2.70;;;1.40;;
6109;SDS011;3085;49.444;11.054;2023-07-20T08:33:57;5.17;;;1.60;;
6109;SDS011;3085;49.444;11.054;2023-07-20T08:36:24;6.90;;;1.77;;
6109;SDS011;3085;49.444;11.054;2023-07-20T08:38:51;3.90;;;1.60;;
6109;SDS011;3085;49.444;11.054;2023-07-20T08:41:18;3.30;;;1.83;;
6109;SDS011;3085;49.444;11.054;2023-07-20T08:43:46;3.97;;;1.70;;
6109;SDS011;3085;49.444;11.054;2023-07-20T08:46:14;6.87;;;2.03;;
6109;SDS011;3085;49.444;11.054;2023-07-20T08:48:42;3.40;;;1.30;;
6109;SDS011;3085;49.444;11.054;2023-07-20T08:51:10;2.03;;;1.57;;
6109;SDS011;3085;49.444;11.054;2023-07-20T08:53:39;2.20;;;1.27;;
6109;SDS011;3085;49.444;11.054;2023-07-20T08:56:05;2.37;;;1.17;;
6109;SDS011;3085;49.444;11.054;2023-07-20T08:58:36;3.93;;;1.53;;
6109;SDS011;3085;49.444;11.054;2023-07-20T09:01:05;4.70;;;1.97;;
6109;SDS011;3085;49.444;11.054;2023-07-20T09:03:32;2.43;;;1.70;;
6109;SDS011;3085;49.444;11.054;2023-07-20T09:05:59;1.30;;;1.20;;
6109;SDS011;3085;49.444;11.054;2023-07-20T09:08:26;4.07;;;1.27;;
6109;SDS011;3085;49.444;11.054;2023-07-20T09:10:53;1.40;;;1.13;;
6109;SDS011;3085;49.444;11.054;2023-07-20T09:13:20;6.93;;;1.63;;
6109;SDS011;3085;49.444;11.054;2023-07-20T09:15:47;2.17;;;1.47;;
6109;SDS011;3085;49.444;11.054;2023-07-20T09:18:26;2.53;;;1.63;;
6109;SDS011;3085;49.444;11.054;2023-07-20T09:20:57;3.00;;;1.40;;
6109;SDS011;3085;49.444;11.054;2023-07-20T09:23:29;3.83;;;1.57;;
6109;SDS011;3085;49.444;11.054;2023-07-20T09:25:57;4.17;;;1.67;;
6109;SDS011;3085;49.444;11.054;2023-07-20T09:28:24;5.50;;;1.60;;
6109;SDS011;3085;49.444;11.054;2023-07-20T09:30:52;3.10;;;1.50;;
6109;SDS011;3085;49.444;11.054;2023-07-20T09:33:22;2.40;;;1.40;;
6109;SDS011;3085;49.444;11.054;2023-07-20T09:35:51;6.50;;;1.50;;
6109;SDS011;3085;49.444;11.054;2023-07-20T09:38:18;3.97;;;1.57;;
6109;SDS011;3085;49.444;11.054;2023-07-20T09:40:45;1.73;;;1.10;;
6109;SDS011;3085;49.444;11.054;2023-07-20T09:43:15;2.60;;;1.03;;
6109;SDS011;3085;49.444;11.054;2023-07-20T09:45:43;1.50;;;1.10;;
6109;SDS011;3085;49.444;11.054;2023-07-20T09:48:10;3.83;;;1.70;;
6109;SDS011;3085;49.444;11.054;2023-07-20T09:50:40;4.30;;;1.20;;
6109;SDS011;3085;49.444;11.054;2023-07-20T09:53:11;2.50;;;1.27;;
6109;SDS011;3085;49.444;11.054;2023-07-20T09:55:39;4.73;;;1.40;;
6109;SDS011;3085;49.444;11.054;2023-07-20T09:58:08;1.87;;;1.00;;
6109;SDS011;3085;49.444;11.054;2023-07-20T10:00:35;1.70;;;1.07;;
6109;SDS011;3085;49.444;11.054;2023-07-20T10:03:03;2.07;;;1.30;;
6109;SDS011;3085;49.444;11.054;2023-07-20T10:05:31;2.57;;;1.30;;
6109;SDS011;3085;49.444;11.054;2023-07-20T10:08:00;1.77;;;1.10;;
6109;SDS011;3085;49.444;11.054;2023-07-20T10:10:31;2.00;;;1.20;;
6109;SDS011;3085;49.444;11.054;2023-07-20T10:13:00;1.63;;;1.10;;
6109;SDS011;3085;49.444;11.054;2023-07-20T10:15:29;1.60;;;1.03;;
6109;SDS011;3085;49.444;11.054;2023-07-20T10:18:02;2.00;;;1.20;;
6109;SDS011;3085;49.444;11.054;2023-07-20T10:20:33;2.80;;;1.47;;
6109;SDS011;3085;49.444;11.054;2023-07-20T10:23:03;1.20;;;0.90;;
6109;SDS011;3085;49.444;11.054;2023-07-20T10:25:32;1.77;;;1.30;;
6109;SDS011;3085;49.444;11.054;2023-07-20T10:28:02;2.33;;;1.50;;
6109;SDS011;3085;49.444;11.054;2023-07-20T10:30:30;2.37;;;1.00;;
6109;SDS011;3085;49.444;11.054;2023-07-20T10:32:58;3.03;;;1.10;;
6109;SDS011;3085;49.444;11.054;2023-07-20T10:35:28;1.20;;;0.97;;
6109;SDS011;3085;49.444;11.054;2023-07-20T10:37:59;4.70;;;1.00;;
6109;SDS011;3085;49.444;11.054;2023-07-20T10:40:27;1.83;;;1.20;;
6109;SDS011;3085;49.444;11.054;2023-07-20T10:42:58;1.40;;;0.90;;
6109;SDS011;3085;49.444;11.054;2023-07-20T10:45:35;3.53;;;1.27;;
6109;SDS011;3085;49.444;11.054;2023-07-20T10:48:08;2.07;;;1.47;;
6109;SDS011;3085;49.444;11.054;2023-07-20T10:50:40;1.90;;;1.30;;
6109;SDS011;3085;49.444;11.054;2023-07-20T10:53:11;2.10;;;1.30;;
6109;SDS011;3085;49.444;11.054;2023-07-20T10:55:42;4.23;;;1.57;;
6109;SDS011;3085;49.444;11.054;2023-07-20T10:58:11;2.47;;;1.30;;
6109;SDS011;3085;49.444;11.054;2023-07-20T11:00:54;2.43;;;1.30;;
6109;SDS011;3085;49.444;11.054;2023-07-20T11:03:29;2.30;;;1.20;;
6109;SDS011;3085;49.444;11.054;2023-07-20T11:05:57;2.73;;;1.30;;
6109;SDS011;3085;49.444;11.054;2023-07-20T11:08:40;2.70;;;1.30;;
6109;SDS011;3085;49.444;11.054;2023-07-20T11:13:58;2.90;;;0.90;;
6109;SDS011;3085;49.444;11.054;2023-07-20T11:16:35;1.60;;;1.30;;
6109;SDS011;3085;49.444;11.054;2023-07-20T11:19:04;1.60;;;1.17;;
6109;SDS011;3085;49.444;11.054;2023-07-20T11:21:35;2.03;;;1.03;;
6109;SDS011;3085;49.444;11.054;2023-07-20T11:24:04;3.30;;;1.00;;
6109;SDS011;3085;49.444;11.054;2023-07-20T11:29:08;4.23;;;1.70;;
6109;SDS011;3085;49.444;11.054;2023-07-20T11:31:35;3.30;;;1.30;;
6109;SDS011;3085;49.444;11.054;2023-07-20T11:34:02;2.33;;;1.17;;
6109;SDS011;3085;49.444;11.054;2023-07-20T11:36:29;1.80;;;1.27;;
6109;SDS011;3085;49.444;11.054;2023-07-20T11:38:56;1.60;;;1.03;;
6109;SDS011;3085;49.444;11.054;2023-07-20T11:41:24;1.87;;;1.00;;
6109;SDS011;3085;49.444;11.054;2023-07-20T11:43:51;3.20;;;1.20;;
6109;SDS011;3085;49.444;11.054;2023-07-20T11:46:19;2.63;;;1.03;;
6109;SDS011;3085;49.444;11.054;2023-07-20T11:48:46;2.03;;;1.33;;
6109;SDS011;3085;49.444;11.054;2023-07-20T11:51:13;2.27;;;1.13;;
6109;SDS011;3085;49.444;11.054;2023-07-20T11:53:41;3.40;;;1.10;;
6109;SDS011;3085;49.444;11.054;2023-07-20T11:56:08;1.70;;;1.10;;
6109;SDS011;3085;49.444;11.054;2023-07-20T11:58:36;2.57;;;1.37;;
6109;SDS011;3085;49.444;11.054;2023-07-20T12:01:07;2.03;;;0.80;;
6109;SDS011;3085;49.444;11.054;2023-07-20T12:03:37;3.13;;;1.30;;
6109;SDS011;3085;49.444;11.054;2023-07-20T12:06:07;3.33;;;1.20;;
6109;SDS011;3085;49.444;11.054;2023-07-20T12:08:34;2.00;;;1.10;;
6109;SDS011;3085;49.444;11.054;2023-07-20T12:11:03;2.63;;;1.60;;
6109;SDS011;3085;49.444;11.054;2023-07-20T12:13:37;1.60;;;1.00;;
6109;SDS011;3085;49.444;11.054;2023-07-20T12:16:13;3.10;;;1.20;;
6109;SDS011;3085;49.444;11.054;2023-07-20T12:18:43;1.40;;;1.10;;
6109;SDS011;3085;49.444;11.054;2023-07-20T12:21:10;3.27;;;1.30;;
6109;SDS011;3085;49.444;11.054;2023-07-20T12:23:38;2.07;;;1.30;;
6109;SDS011;3085;49.444;11.054;2023-07-20T12:26:08;1.30;;;0.80;;
6109;SDS011;3085;49.444;11.054;2023-07-20T12:28:38;2.33;;;1.00;;
6109;SDS011;3085;49.444;11.054;2023-07-20T12:31:07;1.20;;;0.70;;
6109;SDS011;3085;49.444;11.054;2023-07-20T12:33:34;1.70;;;1.00;;
6109;SDS011;3085;49.444;11.054;2023-07-20T12:36:03;1.53;;;1.03;;
6109;SDS011;3085;49.444;11.054;2023-07-20T12:38:31;2.63;;;1.00;;
6109;SDS011;3085;49.444;11.054;2023-07-20T12:40:59;1.20;;;0.90;;
6109;SDS011;3085;49.444;11.054;2023-07-20T12:43:28;1.60;;;1.00;;
6109;SDS011;3085;49.444;11.054;2023-07-20T12:45:57;1.30;;;0.80;;
6109;SDS011;3085;49.444;11.054;2023-07-20T12:48:24;1.70;;;1.10;;
6109;SDS011;3085;49.444;11.054;2023-07-20T12:50:51;1.50;;;1.07;;
6109;SDS011;3085;49.444;11.054;2023-07-20T12:53:19;1.43;;;0.97;;
6109;SDS011;3085;49.444;11.054;2023-07-20T12:55:47;4.10;;;1.40;;
6109;SDS011;3085;49.444;11.054;2023-07-20T12:58:14;1.80;;;0.97;;
6109;SDS011;3085;49.444;11.054;2023-07-20T13:00:41;2.57;;;1.40;;
6109;SDS011;3085;49.444;11.054;2023-07-20T13:03:08;2.80;;;1.10;;
6109;SDS011;3085;49.444;11.054;2023-07-20T13:05:37;4.67;;;1.27;;
6109;SDS011;3085;49.444;11.054;2023-07-20T13:08:03;3.33;;;1.17;;
6109;SDS011;3085;49.444;11.054;2023-07-20T13:10:32;1.30;;;0.90;;
6109;SDS011;3085;49.444;11.054;2023-07-20T13:12:59;2.07;;;1.13;;
6109;SDS011;3085;49.444;11.054;2023-07-20T13:15:29;1.80;;;1.10;;
6109;SDS011;3085;49.444;11.054;2023-07-20T13:18:07;1.30;;;1.00;;
6109;SDS011;3085;49.444;11.054;2023-07-20T13:20:34;2.27;;;1.50;;
6109;SDS011;3085;49.444;11.054;2023-07-20T13:23:00;3.50;;;1.10;;
6109;SDS011;3085;49.444;11.054;2023-07-20T13:25:27;16.47;;;3.30;;
6109;SDS011;3085;49.444;11.054;2023-07-20T13:27:55;3.03;;;1.33;;
6109;SDS011;3085;49.444;11.054;2023-07-20T13:30:22;2.03;;;1.20;;
6109;SDS011;3085;49.444;11.054;2023-07-20T13:32:49;3.40;;;1.13;;
6109;SDS011;3085;49.444;11.054;2023-07-20T13:35:17;2.23;;;1.10;;
6109;SDS011;3085;49.444;11.054;2023-07-20T13:37:43;1.50;;;1.17;;
6109;SDS011;3085;49.444;11.054;2023-07-20T13:40:11;4.33;;;1.27;;
6109;SDS011;3085;49.444;11.054;2023-07-20T13:42:38;1.97;;;1.20;;
6109;SDS011;3085;49.444;11.054;2023-07-20T13:45:07;1.97;;;0.90;;
6109;SDS011;3085;49.444;11.054;2023-07-20T13:47:34;1.50;;;1.00;;
6109;SDS011;3085;49.444;11.054;2023-07-20T13:50:01;3.27;;;1.30;;
6109;SDS011;3085;49.444;11.054;2023-07-20T13:52:28;1.73;;;0.93;;
6109;SDS011;3085;49.444;11.054;2023-07-20T13:54:54;3.70;;;1.23;;
6109;SDS011;3085;49.444;11.054;2023-07-20T13:57:21;2.60;;;1.20;;
6109;SDS011;3085;49.444;11.054;2023-07-20T13:59:48;1.63;;;0.80;;
6109;SDS011;3085;49.444;11.054;2023-07-20T14:02:16;1.50;;;1.10;;
6109;SDS011;3085;49.444;11.054;2023-07-20T14:04:43;3.43;;;1.40;;
6109;SDS011;3085;49.444;11.054;2023-07-20T14:07:09;1.60;;;1.07;;
6109;SDS011;3085;49.444;11.054;2023-07-20T14:09:37;2.17;;;1.00;;
6109;SDS011;3085;49.444;11.054;2023-07-20T14:12:04;2.10;;;1.13;;
6109;SDS011;3085;49.444;11.054;2023-07-20T14:14:33;2.03;;;1.23;;
6109;SDS011;3085;49.444;11.054;2023-07-20T14:17:00;1.60;;;0.90;;
6109;SDS011;3085;49.444;11.054;2023-07-20T14:19:28;2.17;;;1.37;;
6109;SDS011;3085;49.444;11.054;2023-07-20T14:21:55;6.10;;;1.60;;
6109;SDS011;3085;49.444;11.054;2023-07-20T14:24:26;1.87;;;0.97;;
6109;SDS011;3085;49.444;11.054;2023-07-20T14:27:00;2.43;;;1.30;;
6109;SDS011;3085;49.444;11.054;2023-07-20T14:29:52;2.20;;;1.20;;
6109;SDS011;3085;49.444;11.054;2023-07-20T14:32:22;2.23;;;1.20;;
6109;SDS011;3085;49.444;11.054;2023-07-20T14:34:50;6.60;;;1.50;;
6109;SDS011;3085;49.444;11.054;2023-07-20T14:37:17;1.60;;;0.90;;
6109;SDS011;3085;49.444;11.054;2023-07-20T14:39:44;2.90;;;1.60;;
6109;SDS011;3085;49.444;11.054;2023-07-20T14:42:11;3.00;;;1.00;;
6109;SDS011;3085;49.444;11.054;2023-07-20T14:44:38;2.07;;;1.20;;
6109;SDS011;3085;49.444;11.054;2023-07-20T14:47:05;2.90;;;0.90;;
6109;SDS011;3085;49.444;11.054;2023-07-20T14:49:32;1.80;;;1.20;;
6109;SDS011;3085;49.444;11.054;2023-07-20T14:52:01;1.83;;;1.17;;
6109;SDS011;3085;49.444;11.054;2023-07-20T14:54:29;3.50;;;1.40;;
6109;SDS011;3085;49.444;11.054;2023-07-20T14:56:59;1.40;;;0.97;;
6109;SDS011;3085;49.444;11.054;2023-07-20T15:02:49;1.60;;;1.20;;
6109;SDS011;3085;49.444;11.054;2023-07-20T15:05:24;5.13;;;0.90;;
6109;SDS011;3085;49.444;11.054;2023-07-20T15:07:57;1.80;;;1.20;;
6109;SDS011;3085;49.444;11.054;2023-07-20T15:10:25;2.97;;;1.40;;
6109;SDS011;3085;49.444;11.054;2023-07-20T15:12:52;2.63;;;1.23;;
6109;SDS011;3085;49.444;11.054;2023-07-20T15:15:19;1.30;;;0.80;;
6109;SDS011;3085;49.444;11.054;2023-07-20T15:17:46;2.27;;;1.10;;
6109;SDS011;3085;49.444;11.054;2023-07-20T15:20:15;1.67;;;1.07;;
6109;SDS011;3085;49.444;11.054;2023-07-20T15:22:43;5.40;;;1.30;;
6109;SDS011;3085;49.444;11.054;2023-07-20T15:25:11;1.80;;;1.20;;